Havelock, North Carolina
Current Conditions -  °F | °C
As of 2:54 PM on Sunday 23 Nov 2014 (Local Time) from KNKT Reporting Station
Light Rain Light Rain  
Wind Chill: 63°   Ceiling: 5000
Heat Index: 63°   Visibility: 7mi
Dew Point: 60°   Wind: 10mph
Humidity: 90%   Direction: 140°SE
Pressure: 30.09"   Gusts: NA
Location:  34.88°N, 76.9°W
Report Text: KNKT 231954Z 14009KT 7SM -RA SCT035 BKN050 OVC090 17/16 A3009 RMK AO2 SLP186 P0005 T01720156 $
Loading
Personal Weather Stations






























Interactive Weather Map New forecast layout! Learn more

10-Day Weather Forecast

Advertisements
Track Severe Weather on mobile